LFKB/BIA METAR and TAF weather

Enter ICAO airport designator
Station Type Date Time Source
LFKB METAR 2020/07/11 02:00 UTC NOAA

LFKB 110200Z AUTO 20004KT CAVOK 21/17 Q1014 NOSIG


Station Type Date Time Source
LFKB Decoded METAR 2020/07/11 02:00 UTC NOAA

Bastia, France (LFKB) 42-33N 009-29E 12M
Jul 10, 2020 - 10:00 PM EDT / 2020.07.11 0200 UTC
Wind: from the SSW (200 degrees) at 5 MPH (4 KT):0
Visibility: greater than 7 mile(s):0
Temperature: 69 F (21 C)
Dew Point: 62 F (17 C)
Relative Humidity: 77%
Pressure (altimeter): 29.94 in. Hg (1014 hPa)
ob: LFKB 110200Z AUTO 20004KT CAVOK 21/17 Q1014 NOSIG
cycle: 2

Station Type Date Time Source
LFKB TAF 2020/07/10 21:26 UTC NOAA

TAF LFKB 102000Z 1021/1121 24004KT CAVOK TX30/1112Z TN19/1104Z
BECMG 1108/1110 12010KT
BECMG 1119/1121 23005KT

Example: see airport list